Terminal Aerodrome Forecast
Issued by NWS Charleston, WV

Current Version | Previous Version | Text Only | Print | Product List | Glossary Off
Versions: 1 2 3 4 5 6 7 8 9 10 11 12 13 14 15 16 17 18 19 20 21 22 23 24 25 26

763
FTUS41 KRLX 212024 AAA
TAFEKN
TAF AMD
KEKN 212024Z 2120/2218 15004KT P6SM OVC035
      TEMPO 2120/2122 3SM SHRA BR BKN015 OVC025
     FM212200 00000KT 4SM SHRA BR OVC025
     FM220000 00000KT 6SM BR OVC008
     FM220400 00000KT 4SM BR OVC003
     FM221000 VRB03KT 1SM BR BKN001
     FM221300 VRB03KT 4SM BR OVC003
     FM221700 33007KT 5SM -SHRA OVC015=

USA.gov is the U.S. government's official web portal to all federal, state and local government web resources and services.